Time;durP1;ratioP1;P1;durP2;ratioP2;P2;SDS_P1;SDS_P2;PMS_P1;PMS_P2;Temp;Humidity;BMP_temperature;BMP_pressure;BME280_temperature;BME280_humidity;BME280_pressure;Samples;Min_cycle;Max_cycle;Signal;HPM_P1;HPM_P2
2021/09/28 00:02:15;;;;;;;11.23;6.27;;;;;;;19.71;63.66;98339.72;8448868;28;20204;-66
2021/09/28 00:06:18;;;;;;;10.60;6.90;;;;;;;19.66;64.03;98341.84;8456174;28;20510;-66
2021/09/28 00:10:22;;;;;;;8.97;6.40;;;;;;;19.63;63.85;98339.44;8456033;28;20199;-66
2021/09/28 00:14:25;;;;;;;10.33;6.53;;;;;;;19.58;64.16;98349.50;8455948;28;20201;-66
2021/09/28 00:18:29;;;;;;;12.00;6.47;;;;;;;19.51;64.07;98342.09;8455715;28;20316;-66
2021/09/28 00:22:32;;;;;;;9.53;6.73;;;;;;;19.44;63.88;98347.88;8455606;28;20205;-66
2021/09/28 00:26:35;;;;;;;8.37;6.03;;;;;;;19.49;63.59;98346.59;8455384;28;20229;-66
2021/09/28 00:30:38;;;;;;;9.23;6.57;;;;;;;19.47;63.77;98345.88;8455346;28;20198;-66
2021/09/28 00:34:42;;;;;;;8.10;6.10;;;;;;;19.49;63.78;98348.38;8455132;28;20298;-66
2021/09/28 00:38:45;;;;;;;7.33;6.13;;;;;;;19.47;64.24;98345.03;8455036;28;20199;-67
2021/09/28 00:42:48;;;;;;;8.73;5.90;;;;;;;19.46;63.60;98349.47;8454995;28;20205;-66
2021/09/28 00:46:51;;;;;;;12.10;5.13;;;;;;;19.39;63.52;98350.03;8454833;28;20233;-66
2021/09/28 00:50:55;;;;;;;5.67;4.70;;;;;;;19.34;63.23;98350.34;8454878;28;20226;-66
2021/09/28 00:55:00;;;;;;;8.57;4.67;;;;;;;19.31;63.11;98346.19;8454475;28;20198;-66
2021/09/28 00:59:05;;;;;;;7.70;4.80;;;;;;;19.29;63.34;98342.00;8452207;28;20209;-66
2021/09/28 01:03:08;;;;;;;6.23;4.90;;;;;;;19.20;63.14;98346.13;8452359;28;20203;-66
2021/09/28 01:07:13;;;;;;;7.00;4.77;;;;;;;19.18;62.98;98353.28;8452207;28;20531;-66
2021/09/28 01:11:16;;;;;;;5.87;4.87;;;;;;;19.15;63.29;98374.50;8452148;28;20443;-66
2021/09/28 01:15:19;;;;;;;7.60;4.13;;;;;;;19.02;63.05;98385.06;8451605;28;20227;-66
2021/09/28 01:19:22;;;;;;;8.27;5.40;;;;;;;19.08;63.53;98379.38;8451910;28;20203;-66
2021/09/28 01:23:26;;;;;;;7.23;5.67;;;;;;;19.09;63.50;98383.66;8451798;28;20211;-66
2021/09/28 01:27:35;;;;;;;9.50;6.20;;;;;;;19.17;63.16;98380.47;8451587;28;20226;-66
2021/09/28 01:31:39;;;;;;;8.67;6.10;;;;;;;19.08;63.23;98384.63;8451791;28;20384;-66
2021/09/28 01:35:41;;;;;;;10.97;6.03;;;;;;;19.06;63.56;98390.94;8451456;28;20225;-66
2021/09/28 01:39:46;;;;;;;7.73;6.03;;;;;;;19.12;63.56;98388.69;8451223;28;20268;-66
2021/09/28 01:43:49;;;;;;;9.13;6.03;;;;;;;19.14;63.91;98394.66;8451421;28;20203;-66
2021/09/28 01:47:51;;;;;;;8.77;6.17;;;;;;;19.10;63.96;98401.09;8450987;28;20445;-67
2021/09/28 01:51:54;;;;;;;12.03;6.57;;;;;;;19.10;64.73;98416.03;8451108;28;20202;-66
2021/09/28 01:55:59;;;;;;;6.73;5.57;;;;;;;19.04;65.52;98427.78;8410171;28;1168057;-67
2021/09/28 02:00:02;;;;;;;5.40;2.70;;;;;;;18.81;65.13;98429.44;8452494;28;20204;-66
2021/09/28 02:04:05;;;;;;;5.30;2.13;;;;;;;18.72;64.67;98448.41;8452537;28;20203;-66
2021/09/28 02:08:08;;;;;;;3.90;1.20;;;;;;;18.58;62.92;98456.41;8452075;28;20227;-67
2021/09/28 02:12:12;;;;;;;2.80;0.90;;;;;;;18.58;62.25;98456.41;8452056;28;20226;-66
2021/09/28 02:16:18;;;;;;;1.47;0.80;;;;;;;18.55;62.73;98454.84;8452014;28;20199;-66
2021/09/28 02:20:20;;;;;;;0.90;0.80;;;;;;;18.66;62.75;98454.94;8452302;28;20198;-66
2021/09/28 02:24:23;;;;;;;9.20;1.00;;;;;;;18.49;62.51;98469.22;8451160;28;20207;-66
2021/09/28 02:28:28;;;;;;;1.00;0.50;;;;;;;18.32;62.32;98474.78;8451411;28;20411;-66
2021/09/28 02:32:30;;;;;;;0.83;0.50;;;;;;;18.27;61.29;98469.81;8451314;28;20198;-66
2021/09/28 02:36:33;;;;;;;1.13;0.70;;;;;;;18.12;61.89;98469.06;8451395;28;20210;-66
2021/09/28 02:40:39;;;;;;;2.03;0.60;;;;;;;18.20;61.56;98465.09;8451254;28;20387;-66
2021/09/28 02:44:44;;;;;;;2.63;0.60;;;;;;;18.23;61.19;98459.66;8451332;28;20393;-66
2021/09/28 02:48:46;;;;;;;0.50;0.50;;;;;;;18.23;61.00;98470.97;8450906;28;20427;-66
2021/09/28 02:52:52;;;;;;;1.07;0.50;;;;;;;18.16;61.15;98462.72;8451077;28;20389;-66
2021/09/28 02:56:55;;;;;;;0.67;0.40;;;;;;;18.04;61.13;98452.19;8450805;28;20234;-66
2021/09/28 03:00:59;;;;;;;1.30;0.47;;;;;;;18.30;60.13;98458.31;8450716;28;20449;-66
2021/09/28 03:05:02;;;;;;;2.70;0.70;;;;;;;18.25;60.53;98455.97;8450421;28;20206;-66
2021/09/28 03:09:05;;;;;;;2.33;0.70;;;;;;;18.35;60.05;98467.53;8450538;28;20230;-66
2021/09/28 03:13:08;;;;;;;1.70;0.50;;;;;;;18.34;59.84;98463.22;8450196;28;20199;-66
2021/09/28 03:17:12;;;;;;;1.23;0.50;;;;;;;18.49;59.67;98473.63;8450243;28;20209;-66
2021/09/28 03:21:16;;;;;;;2.30;0.70;;;;;;;18.44;59.79;98494.91;8450136;28;20198;-66
2021/09/28 03:25:19;;;;;;;1.17;0.50;;;;;;;18.26;59.70;98504.00;8449999;28;20198;-66
2021/09/28 03:29:22;;;;;;;1.07;0.70;;;;;;;18.25;59.55;98505.78;8449855;28;20229;-66
2021/09/28 03:33:26;;;;;;;1.80;0.60;;;;;;;18.30;58.93;98516.81;8449730;28;20529;-66
2021/09/28 03:37:29;;;;;;;2.17;0.80;;;;;;;18.14;60.31;98527.50;8449573;28;20204;-66
2021/09/28 03:41:32;;;;;;;1.73;0.80;;;;;;;18.18;60.21;98528.09;8449417;28;20200;-66
2021/09/28 03:45:35;;;;;;;1.27;1.03;;;;;;;18.07;60.40;98533.25;8449601;28;20520;-66
2021/09/28 03:49:39;;;;;;;1.43;0.93;;;;;;;18.10;60.39;98540.88;8448483;28;20427;-66
2021/09/28 03:53:42;;;;;;;2.20;1.27;;;;;;;18.02;60.62;98543.19;8449217;28;20209;-66
2021/09/28 03:57:45;;;;;;;2.80;1.27;;;;;;;18.00;60.62;98545.91;8449148;28;20421;-66
2021/09/28 04:01:48;;;;;;;3.67;1.10;;;;;;;17.92;60.69;98543.78;8449312;28;20221;-66
2021/09/28 04:05:53;;;;;;;4.57;1.13;;;;;;;17.88;60.55;98550.16;8449178;28;20195;-66
2021/09/28 04:10:01;;;;;;;2.63;1.10;;;;;;;17.84;60.37;98547.78;8449159;28;20416;-66
2021/09/28 04:14:04;;;;;;;3.60;1.40;;;;;;;17.89;60.30;98551.81;8449100;28;20198;-66
2021/09/28 04:18:07;;;;;;;2.07;1.23;;;;;;;17.70;61.01;98544.28;8449026;28;20206;-66
2021/09/28 04:22:12;;;;;;;5.50;1.30;;;;;;;17.59;61.11;98547.63;8448854;28;20195;-66
2021/09/28 04:26:15;;;;;;;4.03;1.53;;;;;;;17.84;60.66;98560.91;8449012;28;20498;-66
2021/09/28 04:30:18;;;;;;;2.50;1.30;;;;;;;17.80;60.72;98565.53;8448890;28;20248;-66
2021/09/28 04:34:21;;;;;;;2.93;1.60;;;;;;;17.78;60.82;98568.22;8448694;28;20222;-66
2021/09/28 04:38:25;;;;;;;3.13;1.60;;;;;;;17.88;60.57;98570.28;8448634;28;20209;-67
2021/09/28 04:42:28;;;;;;;4.97;1.70;;;;;;;17.86;60.43;98572.16;8448678;28;20199;-66
2021/09/28 04:46:35;;;;;;;3.23;1.80;;;;;;;17.82;60.40;98570.63;8448528;28;20393;-66
2021/09/28 04:50:38;;;;;;;3.30;1.70;;;;;;;17.78;60.66;98583.09;8452640;28;20222;-66
2021/09/28 04:54:42;;;;;;;3.77;2.00;;;;;;;17.79;60.52;98584.78;8454512;28;20194;-66
2021/09/28 04:58:47;;;;;;;6.23;2.70;;;;;;;17.64;60.09;98575.28;8453671;28;20230;-66
2021/09/28 05:02:50;;;;;;;3.60;2.20;;;;;;;17.64;60.26;98580.53;8453298;28;20384;-66
2021/09/28 05:06:53;;;;;;;4.10;2.40;;;;;;;17.58;60.42;98582.59;8453257;28;20190;-66
2021/09/28 05:10:57;;;;;;;7.67;2.47;;;;;;;17.63;59.69;98584.94;8453534;28;20426;-66
2021/09/28 05:15:00;;;;;;;6.63;3.00;;;;;;;17.56;59.81;98583.63;8453711;28;20386;-66
2021/09/28 05:19:05;;;;;;;3.97;2.70;;;;;;;17.61;59.93;98592.03;8453491;28;20195;-66
2021/09/28 05:23:08;;;;;;;5.33;3.40;;;;;;;17.47;59.77;98598.13;8453773;28;20209;-66
2021/09/28 05:27:13;;;;;;;6.43;3.20;;;;;;;17.56;60.10;98604.56;8453373;28;20198;-66
2021/09/28 05:31:17;;;;;;;5.57;2.90;;;;;;;17.59;59.73;98605.22;8453239;28;20206;-67
2021/09/28 05:35:20;;;;;;;5.23;3.20;;;;;;;17.52;60.08;98605.72;8453113;28;20226;-66
2021/09/28 05:39:22;;;;;;;6.70;3.63;;;;;;;17.52;59.93;98610.94;8453252;28;20209;-66
2021/09/28 05:43:27;;;;;;;7.70;3.83;;;;;;;17.77;59.63;98615.47;8452892;28;20206;-67
2021/09/28 05:47:31;;;;;;;5.70;3.67;;;;;;;17.63;59.95;98618.13;8453004;28;20392;-66
2021/09/28 05:51:35;;;;;;;5.90;3.50;;;;;;;17.57;60.16;98622.81;8452652;28;20509;-66
2021/09/28 05:55:43;;;;;;;6.17;3.87;;;;;;;17.57;60.51;98629.81;8452869;28;20399;-66
2021/09/28 05:59:48;;;;;;;7.00;3.67;;;;;;;17.61;60.62;98635.69;8451618;28;20202;-66
2021/09/28 06:03:50;;;;;;;5.77;3.53;;;;;;;17.66;59.90;98631.84;8452493;28;20205;-66
2021/09/28 06:07:57;;;;;;;6.63;3.67;;;;;;;17.54;59.87;98641.34;8452210;28;20417;-66
2021/09/28 06:12:01;;;;;;;5.03;3.50;;;;;;;17.61;60.33;98639.19;8452414;28;20205;-66
2021/09/28 06:16:06;;;;;;;6.30;3.50;;;;;;;17.49;60.99;98650.41;8451935;28;20200;-66
2021/09/28 06:20:10;;;;;;;6.60;3.83;;;;;;;17.41;61.57;98648.25;8451840;28;20262;-67
2021/09/28 06:24:13;;;;;;;7.13;3.60;;;;;;;17.54;61.44;98653.59;8451763;28;20198;-67
2021/09/28 06:28:17;;;;;;;5.33;2.97;;;;;;;17.43;61.32;98646.38;8451463;28;20222;-67
2021/09/28 06:32:24;;;;;;;5.03;2.77;;;;;;;17.67;60.80;98645.78;8450881;28;20202;-67
2021/09/28 06:36:27;;;;;;;4.20;2.63;;;;;;;17.59;60.68;98655.00;8451781;28;20205;-66
2021/09/28 06:40:30;;;;;;;6.63;3.13;;;;;;;17.57;61.05;98653.38;8450979;28;20201;-66
2021/09/28 06:44:33;;;;;;;5.43;3.10;;;;;;;17.58;61.49;98662.94;8451128;28;20489;-66
2021/09/28 06:48:37;;;;;;;5.73;3.73;;;;;;;17.59;61.20;98661.97;8451013;28;20226;-67
2021/09/28 06:52:41;;;;;;;6.00;4.00;;;;;;;17.59;61.27;98665.47;8450972;28;20198;-67
2021/09/28 06:56:44;;;;;;;6.80;4.37;;;;;;;17.57;61.33;98667.34;8450396;28;20227;-67
2021/09/28 07:00:47;;;;;;;8.87;4.07;;;;;;;17.78;60.88;98659.06;8450576;28;20494;-66
2021/09/28 07:04:51;;;;;;;6.17;4.37;;;;;;;17.68;60.85;98663.19;8450626;28;20198;-66
2021/09/28 07:08:54;;;;;;;7.93;3.97;;;;;;;17.82;60.47;98676.28;8450425;28;20525;-66
2021/09/28 07:12:57;;;;;;;7.17;4.53;;;;;;;17.90;60.61;98681.91;8449930;28;20205;-66
2021/09/28 07:17:00;;;;;;;6.30;4.33;;;;;;;17.78;60.20;98672.16;8450362;28;20384;-66
2021/09/28 07:21:04;;;;;;;12.97;4.60;;;;;;;17.87;60.07;98679.47;8450145;28;20400;-66
2021/09/28 07:25:08;;;;;;;8.97;4.43;;;;;;;17.73;59.91;98688.16;8450133;28;20198;-66
2021/09/28 07:29:27;;;;;;;9.20;4.67;;;;;;;17.91;59.85;98682.75;8449826;28;20230;-66
2021/09/28 07:33:30;;;;;;;5.80;4.30;;;;;;;18.03;59.53;98686.38;8449718;28;20222;-66
2021/09/28 07:37:35;;;;;;;6.27;4.20;;;;;;;18.05;59.30;98682.72;8449536;28;20198;-66
2021/09/28 07:41:38;;;;;;;7.47;4.17;;;;;;;18.10;59.47;98687.66;8449460;28;20202;-66
2021/09/28 07:45:41;;;;;;;6.20;4.17;;;;;;;18.09;58.14;98688.63;8449520;28;20198;-66
2021/09/28 07:49:44;;;;;;;8.37;3.70;;;;;;;19.04;56.13;98689.41;8449430;28;20230;-66
2021/09/28 07:53:49;;;;;;;8.17;3.70;;;;;;;18.97;56.03;98681.13;8449392;28;20205;-66
2021/09/28 07:57:52;;;;;;;16.27;3.70;;;;;;;18.68;56.25;98680.44;8449173;28;20235;-67
2021/09/28 08:01:55;;;;;;;8.03;2.37;;;;;;;19.10;63.80;98686.41;8448209;28;20211;-73
2021/09/28 08:05:58;;;;;;;5.77;2.47;;;;;;;20.11;62.85;98686.38;8449320;28;20209;-73
2021/09/28 08:10:02;;;;;;;6.37;2.50;;;;;;;20.16;58.63;98681.59;8449084;28;20227;-72
2021/09/28 08:14:05;;;;;;;6.03;2.40;;;;;;;20.34;60.70;98676.81;8448944;28;20511;-72
2021/09/28 08:18:08;;;;;;;5.77;2.53;;;;;;;20.46;60.12;98688.22;8449067;28;20205;-72
2021/09/28 08:22:12;;;;;;;4.83;2.60;;;;;;;20.37;60.47;98684.50;8449169;28;20200;-74
2021/09/28 08:30:37;;;;;;;4.87;2.33;;;;;;;20.48;59.73;98683.69;8455467;28;20222;-73
2021/09/28 08:34:40;;;;;;;7.37;2.43;;;;;;;21.11;55.33;98686.88;8455185;28;20220;-73
2021/09/28 08:38:43;;;;;;;6.20;2.57;;;;;;;21.57;50.98;98688.66;8455257;28;20527;-74
2021/09/28 08:42:47;;;;;;;7.03;2.73;;;;;;;22.06;47.68;98682.09;8454754;28;20199;-73
2021/09/28 08:46:51;;;;;;;6.00;2.40;;;;;;;21.81;50.52;98687.66;8455059;28;20489;-74
2021/09/28 08:50:54;;;;;;;6.28;2.45;;;;;;;21.58;50.67;98689.50;8453913;28;20426;-69
2021/09/28 08:54:57;;;;;;;6.70;2.57;;;;;;;21.53;52.94;98687.19;8454690;28;20212;-71
2021/09/28 08:59:05;;;;;;;11.63;2.93;;;;;;;21.96;50.23;98682.97;8454457;28;20312;-71
2021/09/28 09:03:08;;;;;;;9.17;3.03;;;;;;;21.54;50.02;98686.25;8454340;28;20485;-71
2021/09/28 09:07:21;;;;;;;9.03;2.97;;;;;;;21.40;51.61;98689.94;8454324;28;20206;-70
2021/09/28 09:11:24;;;;;;;9.27;3.00;;;;;;;21.40;51.67;98686.44;8453712;28;20538;-68
2021/09/28 09:15:30;;;;;;;11.43;3.13;;;;;;;22.16;48.23;98684.88;8454043;28;20266;-70
2021/09/28 09:19:33;;;;;;;5.77;2.80;;;;;;;22.15;47.69;98683.19;8454119;28;20601;-73
2021/09/28 09:23:38;;;;;;;5.67;2.70;;;;;;;22.51;46.63;98685.63;8453928;28;20204;-69
2021/09/28 09:27:40;;;;;;;5.53;2.63;;;;;;;23.30;43.60;98680.75;8453795;28;20204;-65
2021/09/28 09:31:54;;;;;;;5.53;2.60;;;;;;;22.92;44.82;98676.03;8453491;28;20253;-65
2021/09/28 09:35:58;;;;;;;5.47;2.20;;;;;;;22.69;45.94;98677.97;8453072;28;20229;-65
2021/09/28 09:40:01;;;;;;;3.47;2.10;;;;;;;22.18;46.20;98666.25;8453185;28;20209;-66
2021/09/28 09:44:08;;;;;;;5.00;2.30;;;;;;;22.84;43.27;98671.41;8453028;28;20363;-66
2021/09/28 09:48:29;;;;;;;4.00;2.07;;;;;;;23.54;40.99;98663.75;8453311;28;20494;-65
2021/09/28 09:52:31;;;;;;;5.57;1.90;;;;;;;23.62;40.71;98654.16;8451061;28;20233;-65
2021/09/28 09:56:46;;;;;;;6.07;1.80;;;;;;;23.94;38.96;98657.63;8452239;28;20233;-64
2021/09/28 10:00:52;;;;;;;7.07;1.90;;;;;;;23.45;41.40;98659.25;8452498;28;20213;-65
2021/09/28 10:04:56;;;;;;;9.20;2.10;;;;;;;22.78;43.23;98656.91;8452564;28;20212;-63
2021/09/28 10:09:02;;;;;;;4.10;1.70;;;;;;;22.62;43.66;98660.00;8452248;28;20202;-64
2021/09/28 10:13:07;;;;;;;4.30;2.23;;;;;;;22.94;42.95;98655.63;8452152;28;20205;-64
2021/09/28 10:17:39;;;;;;;4.53;2.00;;;;;;;23.13;41.78;98652.28;8451719;28;20272;-64
2021/09/28 10:21:44;;;;;;;4.13;1.90;;;;;;;22.64;43.21;98644.88;8406307;28;20209;-64
2021/09/28 10:25:47;;;;;;;5.30;2.23;;;;;;;23.85;40.64;98645.22;8452081;28;20269;-66
2021/09/28 10:29:52;;;;;;;5.77;1.97;;;;;;;24.50;37.61;98648.22;8451633;28;20234;-67
2021/09/28 10:33:55;;;;;;;7.63;2.07;;;;;;;23.99;39.38;98643.03;8451616;28;20227;-67
2021/09/28 10:38:01;;;;;;;4.80;1.80;;;;;;;23.09;39.63;98646.44;8451451;28;20211;-64
2021/09/28 10:42:04;;;;;;;7.40;1.90;;;;;;;22.79;42.26;98641.91;8451295;28;20207;-64
2021/09/28 10:46:07;;;;;;;6.23;1.77;;;;;;;22.63;41.47;98639.72;8450154;28;20203;-63
2021/09/28 10:50:22;;;;;;;4.30;1.60;;;;;;;22.75;41.01;98644.00;8451042;28;20249;-63
2021/09/28 10:54:27;;;;;;;4.70;1.60;;;;;;;23.05;40.81;98638.91;8450980;28;20235;-63
2021/09/28 10:58:32;;;;;;;3.63;1.80;;;;;;;23.29;38.75;98638.63;8450664;28;20243;-63
2021/09/28 11:02:56;;;;;;;6.27;1.63;;;;;;;24.22;38.14;98629.56;8450583;28;20397;-63
2021/09/28 11:07:09;;;;;;;5.90;1.97;;;;;;;23.47;39.49;98631.72;8450546;28;20212;-63
2021/09/28 11:11:16;;;;;;;5.13;1.80;;;;;;;22.99;41.08;98634.94;8450142;28;20289;-64
2021/09/28 11:15:19;;;;;;;4.77;1.80;;;;;;;22.72;40.21;98633.69;8450446;28;20198;-63
2021/09/28 11:19:22;;;;;;;10.90;2.07;;;;;;;22.56;44.13;98634.13;8450166;28;20198;-64
2021/09/28 11:23:25;;;;;;;12.23;2.37;;;;;;;22.53;44.08;98634.38;8449765;28;20218;-64
2021/09/28 11:27:29;;;;;;;9.63;2.00;;;;;;;23.20;39.39;98627.03;8449846;28;20213;-64
2021/09/28 11:31:34;;;;;;;6.17;1.87;;;;;;;23.22;39.29;98618.00;8449524;28;20225;-63
2021/09/28 11:35:38;;;;;;;3.87;1.70;;;;;;;23.25;39.57;98613.41;8449739;28;20230;-63
2021/09/28 11:39:44;;;;;;;5.77;1.97;;;;;;;22.88;39.90;98613.91;8449429;28;20202;-65
2021/09/28 11:43:52;;;;;;;5.60;1.23;;;;;;;22.74;40.48;98613.25;8449083;28;20206;-63
2021/09/28 11:47:56;;;;;;;2.80;1.40;;;;;;;22.72;39.69;98604.63;8449626;28;20224;-63
2021/09/28 11:52:00;;;;;;;3.87;1.60;;;;;;;22.34;40.65;98605.22;8449387;28;20228;-63
2021/09/28 11:56:03;;;;;;;4.67;1.70;;;;;;;22.05;41.29;98600.50;8449166;28;20232;-63
2021/09/28 12:00:09;;;;;;;6.00;2.00;;;;;;;22.05;41.31;98587.31;8455396;28;20393;-63
2021/09/28 12:04:15;;;;;;;4.87;1.70;;;;;;;22.10;40.95;98576.38;8456365;28;20504;-62
2021/09/28 12:08:22;;;;;;;6.90;1.90;;;;;;;22.34;39.24;98574.38;8456168;28;20198;-62
2021/09/28 12:12:27;;;;;;;5.77;1.60;;;;;;;22.54;40.39;98569.22;8456067;28;20222;-63
2021/09/28 12:16:40;;;;;;;5.53;1.80;;;;;;;22.89;39.82;98568.88;8455530;28;20389;-64
2021/09/28 12:20:43;;;;;;;5.03;1.70;;;;;;;23.48;37.92;98558.56;8453640;28;20525;-63
2021/09/28 12:24:48;;;;;;;2.47;1.30;;;;;;;23.96;36.15;98550.72;8455799;28;20197;-64
2021/09/28 12:28:51;;;;;;;2.50;1.20;;;;;;;23.38;36.33;98545.31;8455710;28;20202;-63
2021/09/28 12:32:58;;;;;;;3.30;1.20;;;;;;;22.86;37.39;98544.53;8455436;28;20238;-64
2021/09/28 12:37:03;;;;;;;5.40;1.40;;;;;;;22.79;39.02;98547.72;8455238;28;20198;-64
2021/09/28 12:41:06;;;;;;;2.37;1.20;;;;;;;22.49;38.11;98537.97;8454766;28;20497;-64
2021/09/28 12:45:11;;;;;;;2.87;1.27;;;;;;;22.96;37.79;98533.06;8455009;28;20205;-64
2021/09/28 12:49:30;;;;;;;2.73;1.03;;;;;;;23.78;36.20;98529.44;8454882;28;20199;-65
2021/09/28 12:53:34;;;;;;;2.90;1.00;;;;;;;23.91;36.02;98526.53;8454477;28;20223;-66
2021/09/28 12:57:37;;;;;;;2.20;1.03;;;;;;;24.13;34.36;98520.09;8454376;28;20221;-66
2021/09/28 13:01:44;;;;;;;2.33;0.90;;;;;;;23.49;34.73;98524.06;8454612;28;20208;-66
2021/09/28 13:05:52;;;;;;;2.70;1.10;;;;;;;23.09;35.87;98508.25;8453809;28;20201;-66
2021/09/28 13:09:54;;;;;;;3.83;0.97;;;;;;;23.06;35.60;98509.34;8452903;28;20198;-66
2021/09/28 13:13:57;;;;;;;2.60;1.10;;;;;;;22.91;36.23;98521.22;8453018;28;20191;-66
2021/09/28 13:18:00;;;;;;;2.03;0.90;;;;;;;22.92;37.07;98515.78;8450422;28;20194;-65
2021/09/28 13:22:05;;;;;;;3.50;1.03;;;;;;;23.05;34.82;98504.19;8452882;28;20194;-66
2021/09/28 13:26:08;;;;;;;2.83;1.03;;;;;;;22.86;35.47;98504.94;8452478;28;20198;-67
2021/09/28 13:30:14;;;;;;;2.73;1.00;;;;;;;22.72;36.99;98509.59;8450787;28;20194;-66
2021/09/28 13:34:17;;;;;;;3.93;1.10;;;;;;;22.94;37.45;98502.44;8452230;28;20237;-65
2021/09/28 13:38:21;;;;;;;3.87;1.23;;;;;;;22.63;38.02;98500.66;8449644;28;20223;-67
2021/09/28 13:42:24;;;;;;;4.00;1.13;;;;;;;22.28;38.18;98498.38;8450133;28;20204;-66
2021/09/28 13:46:27;;;;;;;1.57;1.03;;;;;;;22.70;38.85;98489.59;8452850;28;20194;-66
2021/09/28 13:50:30;;;;;;;4.13;1.33;;;;;;;23.43;37.45;98479.69;8452789;28;20293;-66
2021/09/28 13:54:34;;;;;;;2.37;0.90;;;;;;;23.61;36.76;98482.50;8452523;28;20205;-64
2021/09/28 13:58:37;;;;;;;3.17;0.97;;;;;;;23.71;36.08;98478.03;8452459;28;20305;-66
2021/09/28 14:02:40;;;;;;;2.73;1.03;;;;;;;23.50;34.75;98479.97;8452123;28;20384;-66
2021/09/28 14:06:43;;;;;;;1.70;0.90;;;;;;;23.14;35.18;98482.28;8452064;28;20208;-66
2021/09/28 14:10:47;;;;;;;3.10;1.00;;;;;;;23.31;35.43;98475.50;8451592;28;20226;-65
2021/09/28 14:14:50;;;;;;;17.37;2.77;;;;;;;22.94;39.28;98468.97;8452016;28;20202;-70
2021/09/28 14:18:53;;;;;;;9.77;2.20;;;;;;;22.72;39.52;98477.09;8451944;28;20199;-71
2021/09/28 14:22:56;;;;;;;24.33;2.50;;;;;;;22.58;39.63;98472.97;8450688;28;20202;-70
2021/09/28 14:27:00;;;;;;;10.03;2.03;;;;;;;22.38;40.71;98458.88;8451646;28;20201;-69
2021/09/28 14:31:05;;;;;;;5.10;1.30;;;;;;;22.14;40.48;98454.69;8451138;28;20390;-71
2021/09/28 14:35:09;;;;;;;8.77;1.80;;;;;;;22.18;41.19;98453.47;8451171;28;20210;-70
2021/09/28 14:39:12;;;;;;;5.17;1.30;;;;;;;22.08;39.49;98442.00;8451091;28;20206;-70
2021/09/28 14:43:17;;;;;;;5.43;1.57;;;;;;;22.11;41.65;98436.47;8450969;28;20390;-70
2021/09/28 14:47:20;;;;;;;7.27;1.70;;;;;;;22.27;41.53;98430.75;8450879;28;20209;-70
2021/09/28 14:51:23;;;;;;;11.83;1.67;;;;;;;22.30;40.31;98422.59;8450887;28;20230;-69
2021/09/28 14:55:26;;;;;;;4.27;1.30;;;;;;;22.45;40.55;98416.00;8450690;28;20241;-71
2021/09/28 14:59:30;;;;;;;5.03;1.30;;;;;;;22.41;39.97;98419.88;8450746;28;20201;-70
2021/09/28 15:03:33;;;;;;;5.63;1.30;;;;;;;22.39;39.14;98408.59;8450523;28;20209;-69
2021/09/28 15:07:37;;;;;;;4.27;1.30;;;;;;;22.19;41.15;98402.34;8450604;28;20223;-70
2021/09/28 15:11:40;;;;;;;4.33;1.23;;;;;;;22.18;42.04;98405.13;8450103;28;20240;-71
2021/09/28 15:15:44;;;;;;;4.07;1.47;;;;;;;22.09;41.24;98409.41;8450270;28;20493;-70
2021/09/28 15:19:47;;;;;;;4.10;1.30;;;;;;;22.09;40.40;98400.66;8450363;28;20230;-72
2021/09/28 15:23:52;;;;;;;5.07;1.47;;;;;;;22.15;41.52;98402.75;8450018;28;20221;-71
2021/09/28 15:27:55;;;;;;;3.57;1.20;;;;;;;22.06;40.50;98401.72;8449767;28;20209;-71
2021/09/28 15:32:02;;;;;;;11.13;1.33;;;;;;;21.95;42.23;98397.38;8449037;28;20225;-71
2021/09/28 15:36:05;;;;;;;6.17;1.53;;;;;;;21.83;42.74;98396.59;8448163;28;20222;-72
2021/09/28 15:40:09;;;;;;;2.43;1.37;;;;;;;21.69;42.69;98399.56;8448746;28;20254;-72
2021/09/28 15:44:13;;;;;;;5.78;1.30;;;;;;;21.94;41.41;98405.41;8448857;28;20414;-67
2021/09/28 15:48:17;;;;;;;4.07;1.40;;;;;;;21.69;42.54;98404.84;8449671;28;20206;-66
2021/09/28 15:52:20;;;;;;;5.60;1.13;;;;;;;21.59;43.51;98410.03;8449472;28;20414;-66
2021/09/28 15:56:23;;;;;;;5.93;1.20;;;;;;;21.57;43.80;98400.56;8448833;28;20236;-66
2021/09/28 16:00:26;;;;;;;2.93;1.20;;;;;;;21.47;43.16;98400.50;8449198;28;20377;-66
2021/09/28 16:04:30;;;;;;;4.53;1.50;;;;;;;21.47;44.49;98408.41;8449175;28;20240;-66
2021/09/28 16:08:35;;;;;;;4.53;1.43;;;;;;;21.45;45.09;98397.16;8449110;28;20545;-67
2021/09/28 16:12:38;;;;;;;3.57;1.20;;;;;;;21.34;44.87;98398.00;8448991;28;20238;-66
2021/09/28 16:16:41;;;;;;;15.43;6.80;;;;;;;21.33;45.78;98393.69;8449059;28;20400;-66
2021/09/28 16:20:46;;;;;;;69.57;36.10;;;;;;;21.24;47.25;98389.19;8448800;28;20268;-66
2021/09/28 16:24:48;;;;;;;124.33;62.97;;;;;;;21.15;46.45;98390.78;8448691;28;20315;-66
2021/09/28 16:28:53;;;;;;;227.13;114.97;;;;;;;21.15;47.09;98395.19;8447648;28;20207;-66
2021/09/28 16:32:55;;;;;;;236.43;109.67;;;;;;;21.17;47.43;98395.91;8448633;28;20241;-66
2021/09/28 16:37:02;;;;;;;232.60;99.97;;;;;;;21.11;47.43;98391.13;8448746;28;20225;-66
2021/09/28 16:41:08;;;;;;;186.50;76.37;;;;;;;21.02;47.35;98387.47;8448412;28;20197;-65
2021/09/28 16:45:11;;;;;;;108.33;45.63;;;;;;;20.92;47.58;98379.44;8450747;28;20381;-65
2021/09/28 16:49:14;;;;;;;82.33;33.13;;;;;;;20.77;47.86;98380.66;8454885;28;20210;-65
2021/09/28 16:53:18;;;;;;;41.37;18.57;;;;;;;20.81;46.40;98377.69;8454699;28;20241;-65
2021/09/28 16:57:21;;;;;;;30.63;11.77;;;;;;;20.67;46.80;98372.69;8454635;28;20244;-65
2021/09/28 17:01:24;;;;;;;3.87;1.80;;;;;;;20.47;45.75;98377.69;8454445;28;20399;-64
2021/09/28 17:05:27;;;;;;;5.23;1.40;;;;;;;20.18;45.90;98379.97;8454398;28;20200;-65
2021/09/28 17:09:31;;;;;;;3.63;1.60;;;;;;;20.07;46.40;98372.91;8454141;28;20341;-66
2021/09/28 17:13:34;;;;;;;3.87;1.73;;;;;;;19.99;46.49;98371.81;8454140;28;20420;-65
2021/09/28 17:17:39;;;;;;;3.40;1.53;;;;;;;19.74;46.38;98365.78;8453034;28;20259;-65
2021/09/28 17:21:42;;;;;;;3.10;1.40;;;;;;;19.65;46.44;98366.47;8452995;28;20191;-65
2021/09/28 17:25:46;;;;;;;7.00;1.60;;;;;;;19.58;47.10;98368.72;8452678;28;20202;-66
2021/09/28 17:29:49;;;;;;;2.57;1.40;;;;;;;19.47;47.34;98363.41;8449574;28;20199;-65
2021/09/28 17:33:53;;;;;;;3.33;1.80;;;;;;;19.40;47.91;98357.81;8453125;28;20419;-65
2021/09/28 17:37:56;;;;;;;2.73;1.50;;;;;;;19.33;47.94;98356.56;8453241;28;20199;-66
2021/09/28 17:42:00;;;;;;;3.60;1.87;;;;;;;19.29;48.30;98363.00;8453208;28;20203;-65
2021/09/28 17:46:03;;;;;;;2.67;1.90;;;;;;;19.16;48.60;98355.19;8453181;28;20200;-65
2021/09/28 17:50:08;;;;;;;3.87;2.00;;;;;;;19.11;48.98;98366.03;8453015;28;20199;-65
2021/09/28 17:54:11;;;;;;;3.40;1.60;;;;;;;18.99;49.50;98361.66;8452537;28;20264;-65
2021/09/28 17:58:15;;;;;;;4.50;1.93;;;;;;;19.02;49.97;98363.22;8451978;28;20231;-65
2021/09/28 18:02:19;;;;;;;4.27;1.90;;;;;;;19.01;50.26;98369.44;8452266;28;20485;-65
2021/09/28 18:06:22;;;;;;;5.17;2.10;;;;;;;18.92;51.00;98360.44;8452086;28;20199;-65
2021/09/28 18:10:25;;;;;;;4.20;2.20;;;;;;;18.94;50.81;98359.38;8452518;28;20199;-66
2021/09/28 18:14:30;;;;;;;7.50;2.27;;;;;;;18.82;51.28;98352.38;8451504;28;20227;-66
2021/09/28 18:18:35;;;;;;;3.87;1.90;;;;;;;18.77;51.55;98362.34;8452281;28;20210;-65
2021/09/28 18:22:40;;;;;;;3.33;1.93;;;;;;;18.65;52.21;98360.59;8451897;28;20206;-66
2021/09/28 18:26:42;;;;;;;3.63;2.00;;;;;;;18.64;52.19;98354.53;8451966;28;20287;-66
2021/09/28 18:30:50;;;;;;;3.27;2.00;;;;;;;18.60;52.54;98345.19;8451757;28;20506;-65
2021/09/28 18:34:53;;;;;;;4.13;2.30;;;;;;;18.61;53.04;98353.91;8451650;28;20301;-65
2021/09/28 18:38:56;;;;;;;4.53;2.30;;;;;;;18.56;52.84;98355.06;8450291;28;20202;-66
2021/09/28 18:43:01;;;;;;;3.77;2.17;;;;;;;18.55;53.70;98357.78;8450567;28;20194;-66
2021/09/28 18:47:06;;;;;;;4.17;2.30;;;;;;;18.50;53.05;98355.47;8450358;28;20201;-65
2021/09/28 18:51:09;;;;;;;4.83;2.30;;;;;;;18.45;53.09;98351.50;8450263;28;20217;-66
2021/09/28 18:55:16;;;;;;;4.63;2.37;;;;;;;18.32;54.17;98352.38;8449887;28;20409;-66
2021/09/28 18:59:22;;;;;;;4.33;2.40;;;;;;;18.33;54.06;98343.59;8447746;28;20190;-66
2021/09/28 19:03:32;;;;;;;9.27;2.67;;;;;;;18.22;54.90;98347.88;8449816;28;20198;-63
2021/09/28 19:07:39;;;;;;;3.63;2.30;;;;;;;18.18;54.84;98336.75;8449202;28;20198;-63
2021/09/28 19:11:45;;;;;;;7.57;2.60;;;;;;;18.25;54.60;98339.81;8447760;28;20499;-63